sensor_id;sensor_type;location;lat;lon;timestamp;P1;durP1;ratioP1;P2;durP2;ratioP2
61960;SDS011;47923;42.506;24.192;2023-11-18T00:00:27;7.10;;;3.08;;
61960;SDS011;47923;42.506;24.192;2023-11-18T00:02:53;4.32;;;2.42;;
61960;SDS011;47923;42.506;24.192;2023-11-18T00:05:18;4.60;;;2.20;;
61960;SDS011;47923;42.506;24.192;2023-11-18T00:07:44;4.18;;;2.33;;
61960;SDS011;47923;42.506;24.192;2023-11-18T00:10:10;3.10;;;1.60;;
61960;SDS011;47923;42.506;24.192;2023-11-18T00:12:36;3.45;;;1.83;;
61960;SDS011;47923;42.506;24.192;2023-11-18T00:15:02;3.00;;;1.58;;
61960;SDS011;47923;42.506;24.192;2023-11-18T00:17:31;2.95;;;1.70;;
61960;SDS011;47923;42.506;24.192;2023-11-18T00:19:57;2.78;;;1.58;;
61960;SDS011;47923;42.506;24.192;2023-11-18T00:22:22;2.42;;;1.40;;
61960;SDS011;47923;42.506;24.192;2023-11-18T00:24:48;3.20;;;1.90;;
61960;SDS011;47923;42.506;24.192;2023-11-18T00:27:13;2.20;;;1.20;;
61960;SDS011;47923;42.506;24.192;2023-11-18T00:29:40;3.85;;;1.55;;
61960;SDS011;47923;42.506;24.192;2023-11-18T00:32:05;1.73;;;1.20;;
61960;SDS011;47923;42.506;24.192;2023-11-18T00:34:32;2.85;;;1.20;;
61960;SDS011;47923;42.506;24.192;2023-11-18T00:36:58;2.63;;;1.10;;
61960;SDS011;47923;42.506;24.192;2023-11-18T00:39:27;3.75;;;1.10;;
61960;SDS011;47923;42.506;24.192;2023-11-18T00:41:52;2.50;;;1.10;;
61960;SDS011;47923;42.506;24.192;2023-11-18T00:44:18;2.08;;;1.00;;
61960;SDS011;47923;42.506;24.192;2023-11-18T00:46:44;1.60;;;0.80;;
61960;SDS011;47923;42.506;24.192;2023-11-18T00:49:09;3.25;;;1.17;;
61960;SDS011;47923;42.506;24.192;2023-11-18T00:51:37;2.33;;;0.93;;
61960;SDS011;47923;42.506;24.192;2023-11-18T00:54:02;1.92;;;0.90;;
61960;SDS011;47923;42.506;24.192;2023-11-18T00:56:30;2.55;;;0.95;;
61960;SDS011;47923;42.506;24.192;2023-11-18T00:58:59;1.95;;;0.93;;
61960;SDS011;47923;42.506;24.192;2023-11-18T01:01:26;2.15;;;0.90;;
61960;SDS011;47923;42.506;24.192;2023-11-18T01:03:51;1.33;;;0.82;;
61960;SDS011;47923;42.506;24.192;2023-11-18T01:06:18;2.15;;;1.02;;
61960;SDS011;47923;42.506;24.192;2023-11-18T01:08:44;1.27;;;0.85;;
61960;SDS011;47923;42.506;24.192;2023-11-18T01:11:10;2.63;;;1.00;;
61960;SDS011;47923;42.506;24.192;2023-11-18T01:13:40;1.48;;;0.90;;
61960;SDS011;47923;42.506;24.192;2023-11-18T01:16:05;2.35;;;1.00;;
61960;SDS011;47923;42.506;24.192;2023-11-18T01:18:31;2.25;;;0.93;;
61960;SDS011;47923;42.506;24.192;2023-11-18T01:20:56;2.20;;;0.95;;
61960;SDS011;47923;42.506;24.192;2023-11-18T01:23:23;1.85;;;1.02;;
61960;SDS011;47923;42.506;24.192;2023-11-18T01:25:49;1.40;;;0.73;;
61960;SDS011;47923;42.506;24.192;2023-11-18T01:28:16;1.33;;;0.65;;
61960;SDS011;47923;42.506;24.192;2023-11-18T01:30:41;1.17;;;0.65;;
61960;SDS011;47923;42.506;24.192;2023-11-18T01:33:09;1.52;;;0.57;;
61960;SDS011;47923;42.506;24.192;2023-11-18T01:35:35;1.08;;;0.73;;
61960;SDS011;47923;42.506;24.192;2023-11-18T01:38:00;1.00;;;0.70;;
61960;SDS011;47923;42.506;24.192;2023-11-18T01:40:26;1.77;;;1.10;;
61960;SDS011;47923;42.506;24.192;2023-11-18T01:42:51;1.20;;;0.80;;
61960;SDS011;47923;42.506;24.192;2023-11-18T01:45:17;0.93;;;0.70;;
61960;SDS011;47923;42.506;24.192;2023-11-18T01:47:43;2.72;;;1.20;;
61960;SDS011;47923;42.506;24.192;2023-11-18T01:50:09;1.63;;;0.93;;
61960;SDS011;47923;42.506;24.192;2023-11-18T01:52:37;1.80;;;0.90;;
61960;SDS011;47923;42.506;24.192;2023-11-18T01:55:04;1.92;;;1.00;;
61960;SDS011;47923;42.506;24.192;2023-11-18T01:57:34;1.83;;;1.13;;
61960;SDS011;47923;42.506;24.192;2023-11-18T02:00:02;2.22;;;1.10;;
61960;SDS011;47923;42.506;24.192;2023-11-18T02:02:31;1.35;;;0.90;;
61960;SDS011;47923;42.506;24.192;2023-11-18T02:04:58;3.33;;;1.10;;
61960;SDS011;47923;42.506;24.192;2023-11-18T02:07:23;3.45;;;1.30;;
61960;SDS011;47923;42.506;24.192;2023-11-18T02:09:49;2.35;;;1.10;;
61960;SDS011;47923;42.506;24.192;2023-11-18T02:12:27;1.77;;;0.82;;
61960;SDS011;47923;42.506;24.192;2023-11-18T02:14:59;2.05;;;0.93;;
61960;SDS011;47923;42.506;24.192;2023-11-18T02:17:26;2.08;;;0.82;;
61960;SDS011;47923;42.506;24.192;2023-11-18T02:19:54;2.08;;;0.93;;
61960;SDS011;47923;42.506;24.192;2023-11-18T02:22:22;1.88;;;0.90;;
61960;SDS011;47923;42.506;24.192;2023-11-18T02:24:49;2.33;;;1.27;;
61960;SDS011;47923;42.506;24.192;2023-11-18T02:27:15;1.15;;;0.93;;
61960;SDS011;47923;42.506;24.192;2023-11-18T02:29:42;2.58;;;1.05;;
61960;SDS011;47923;42.506;24.192;2023-11-18T02:34:57;2.17;;;1.10;;
61960;SDS011;47923;42.506;24.192;2023-11-18T02:37:30;2.85;;;1.00;;
61960;SDS011;47923;42.506;24.192;2023-11-18T02:40:00;2.08;;;1.27;;
61960;SDS011;47923;42.506;24.192;2023-11-18T02:42:34;2.45;;;1.13;;
61960;SDS011;47923;42.506;24.192;2023-11-18T02:45:03;2.35;;;1.00;;
61960;SDS011;47923;42.506;24.192;2023-11-18T02:47:32;2.90;;;1.15;;
61960;SDS011;47923;42.506;24.192;2023-11-18T02:49:58;1.77;;;0.90;;
61960;SDS011;47923;42.506;24.192;2023-11-18T02:52:35;2.30;;;1.13;;
61960;SDS011;47923;42.506;24.192;2023-11-18T02:55:04;2.35;;;1.10;;
61960;SDS011;47923;42.506;24.192;2023-11-18T02:57:31;1.65;;;0.82;;
61960;SDS011;47923;42.506;24.192;2023-11-18T02:59:58;0.98;;;0.75;;
61960;SDS011;47923;42.506;24.192;2023-11-18T03:02:25;1.42;;;0.88;;
61960;SDS011;47923;42.506;24.192;2023-11-18T03:04:55;2.65;;;1.00;;
61960;SDS011;47923;42.506;24.192;2023-11-18T03:07:21;2.67;;;1.00;;
61960;SDS011;47923;42.506;24.192;2023-11-18T03:09:46;2.92;;;1.17;;
61960;SDS011;47923;42.506;24.192;2023-11-18T03:12:12;1.65;;;1.15;;
61960;SDS011;47923;42.506;24.192;2023-11-18T03:14:38;2.67;;;1.40;;
61960;SDS011;47923;42.506;24.192;2023-11-18T03:17:04;1.90;;;1.20;;
61960;SDS011;47923;42.506;24.192;2023-11-18T03:19:34;2.00;;;1.10;;
61960;SDS011;47923;42.506;24.192;2023-11-18T03:22:03;1.77;;;0.90;;
61960;SDS011;47923;42.506;24.192;2023-11-18T03:24:28;2.72;;;0.90;;
61960;SDS011;47923;42.506;24.192;2023-11-18T03:26:54;2.38;;;1.33;;
61960;SDS011;47923;42.506;24.192;2023-11-18T03:29:20;5.38;;;1.58;;
61960;SDS011;47923;42.506;24.192;2023-11-18T03:31:45;2.47;;;1.20;;
61960;SDS011;47923;42.506;24.192;2023-11-18T03:34:13;2.17;;;1.38;;
61960;SDS011;47923;42.506;24.192;2023-11-18T03:36:39;1.75;;;1.02;;
61960;SDS011;47923;42.506;24.192;2023-11-18T03:39:05;2.25;;;1.45;;
61960;SDS011;47923;42.506;24.192;2023-11-18T03:41:31;2.85;;;1.60;;
61960;SDS011;47923;42.506;24.192;2023-11-18T03:43:57;4.07;;;1.60;;
61960;SDS011;47923;42.506;24.192;2023-11-18T03:46:22;3.40;;;1.27;;
61960;SDS011;47923;42.506;24.192;2023-11-18T03:48:48;3.08;;;1.50;;
61960;SDS011;47923;42.506;24.192;2023-11-18T03:51:13;3.10;;;1.65;;
61960;SDS011;47923;42.506;24.192;2023-11-18T03:53:41;2.70;;;1.65;;
61960;SDS011;47923;42.506;24.192;2023-11-18T03:56:07;2.58;;;1.63;;
61960;SDS011;47923;42.506;24.192;2023-11-18T03:58:33;3.40;;;1.90;;
61960;SDS011;47923;42.506;24.192;2023-11-18T04:00:59;2.75;;;1.75;;
61960;SDS011;47923;42.506;24.192;2023-11-18T04:03:26;3.00;;;1.90;;
61960;SDS011;47923;42.506;24.192;2023-11-18T04:05:52;3.55;;;2.20;;
61960;SDS011;47923;42.506;24.192;2023-11-18T04:08:17;4.38;;;2.30;;
61960;SDS011;47923;42.506;24.192;2023-11-18T04:10:43;4.97;;;2.50;;
61960;SDS011;47923;42.506;24.192;2023-11-18T04:13:08;4.60;;;2.22;;
61960;SDS011;47923;42.506;24.192;2023-11-18T04:15:35;4.97;;;2.20;;
61960;SDS011;47923;42.506;24.192;2023-11-18T04:18:00;4.55;;;2.30;;
61960;SDS011;47923;42.506;24.192;2023-11-18T04:20:26;4.53;;;2.60;;
61960;SDS011;47923;42.506;24.192;2023-11-18T04:22:52;4.18;;;2.47;;
61960;SDS011;47923;42.506;24.192;2023-11-18T04:25:18;4.55;;;2.65;;
61960;SDS011;47923;42.506;24.192;2023-11-18T04:27:43;5.38;;;2.72;;
61960;SDS011;47923;42.506;24.192;2023-11-18T04:30:09;5.55;;;3.20;;
61960;SDS011;47923;42.506;24.192;2023-11-18T04:32:34;5.53;;;3.08;;
61960;SDS011;47923;42.506;24.192;2023-11-18T04:35:00;6.90;;;3.92;;
61960;SDS011;47923;42.506;24.192;2023-11-18T04:37:32;11.02;;;3.85;;
61960;SDS011;47923;42.506;24.192;2023-11-18T04:39:59;7.93;;;4.63;;
61960;SDS011;47923;42.506;24.192;2023-11-18T04:42:24;7.28;;;4.43;;
61960;SDS011;47923;42.506;24.192;2023-11-18T04:44:50;6.22;;;3.70;;
61960;SDS011;47923;42.506;24.192;2023-11-18T04:47:15;7.53;;;3.90;;
61960;SDS011;47923;42.506;24.192;2023-11-18T04:49:43;7.25;;;4.50;;
61960;SDS011;47923;42.506;24.192;2023-11-18T04:52:09;6.47;;;4.38;;
61960;SDS011;47923;42.506;24.192;2023-11-18T04:54:35;9.15;;;4.72;;
61960;SDS011;47923;42.506;24.192;2023-11-18T04:57:01;6.90;;;4.18;;
61960;SDS011;47923;42.506;24.192;2023-11-18T04:59:26;6.90;;;3.60;;
61960;SDS011;47923;42.506;24.192;2023-11-18T05:01:52;7.43;;;4.07;;
61960;SDS011;47923;42.506;24.192;2023-11-18T05:04:18;7.43;;;4.35;;
61960;SDS011;47923;42.506;24.192;2023-11-18T05:06:44;7.68;;;4.25;;
61960;SDS011;47923;42.506;24.192;2023-11-18T05:09:09;11.85;;;4.85;;
61960;SDS011;47923;42.506;24.192;2023-11-18T05:11:35;8.48;;;4.40;;
61960;SDS011;47923;42.506;24.192;2023-11-18T05:14:01;7.03;;;4.28;;
61960;SDS011;47923;42.506;24.192;2023-11-18T05:16:28;8.43;;;4.72;;
61960;SDS011;47923;42.506;24.192;2023-11-18T05:18:54;8.23;;;4.38;;
61960;SDS011;47923;42.506;24.192;2023-11-18T05:21:20;9.35;;;4.78;;
61960;SDS011;47923;42.506;24.192;2023-11-18T05:23:46;10.15;;;5.57;;
61960;SDS011;47923;42.506;24.192;2023-11-18T05:26:12;9.30;;;5.65;;
61960;SDS011;47923;42.506;24.192;2023-11-18T05:28:37;12.20;;;5.50;;
61960;SDS011;47923;42.506;24.192;2023-11-18T05:31:03;9.95;;;6.65;;
61960;SDS011;47923;42.506;24.192;2023-11-18T05:33:30;8.70;;;5.57;;
61960;SDS011;47923;42.506;24.192;2023-11-18T05:35:56;9.00;;;5.35;;
61960;SDS011;47923;42.506;24.192;2023-11-18T05:38:22;9.48;;;5.75;;
61960;SDS011;47923;42.506;24.192;2023-11-18T05:40:49;9.70;;;6.20;;
61960;SDS011;47923;42.506;24.192;2023-11-18T05:43:26;9.25;;;5.95;;
61960;SDS011;47923;42.506;24.192;2023-11-18T05:46:02;9.18;;;5.03;;
61960;SDS011;47923;42.506;24.192;2023-11-18T05:48:44;8.75;;;5.13;;
61960;SDS011;47923;42.506;24.192;2023-11-18T05:51:10;6.25;;;4.05;;
61960;SDS011;47923;42.506;24.192;2023-11-18T05:53:40;8.55;;;5.00;;
61960;SDS011;47923;42.506;24.192;2023-11-18T05:56:07;7.28;;;4.55;;
61960;SDS011;47923;42.506;24.192;2023-11-18T05:58:33;8.50;;;4.97;;
61960;SDS011;47923;42.506;24.192;2023-11-18T06:00:59;8.50;;;4.40;;
61960;SDS011;47923;42.506;24.192;2023-11-18T06:03:25;7.30;;;4.30;;
61960;SDS011;47923;42.506;24.192;2023-11-18T06:05:50;7.35;;;4.45;;
61960;SDS011;47923;42.506;24.192;2023-11-18T06:08:17;8.18;;;4.68;;
61960;SDS011;47923;42.506;24.192;2023-11-18T06:10:42;8.55;;;5.53;;
61960;SDS011;47923;42.506;24.192;2023-11-18T06:13:09;7.78;;;5.65;;
61960;SDS011;47923;42.506;24.192;2023-11-18T06:15:38;8.13;;;5.78;;
61960;SDS011;47923;42.506;24.192;2023-11-18T06:18:04;7.20;;;4.10;;
61960;SDS011;47923;42.506;24.192;2023-11-18T06:20:30;7.57;;;4.40;;
61960;SDS011;47923;42.506;24.192;2023-11-18T06:22:56;8.63;;;5.20;;
61960;SDS011;47923;42.506;24.192;2023-11-18T06:25:22;8.05;;;5.20;;
61960;SDS011;47923;42.506;24.192;2023-11-18T06:27:50;7.38;;;4.32;;
61960;SDS011;47923;42.506;24.192;2023-11-18T06:30:17;5.22;;;3.63;;
61960;SDS011;47923;42.506;24.192;2023-11-18T06:32:45;5.72;;;3.60;;
61960;SDS011;47923;42.506;24.192;2023-11-18T06:35:12;6.97;;;4.20;;
61960;SDS011;47923;42.506;24.192;2023-11-18T06:37:39;7.65;;;4.05;;
61960;SDS011;47923;42.506;24.192;2023-11-18T06:40:18;8.70;;;5.07;;
61960;SDS011;47923;42.506;24.192;2023-11-18T06:42:47;10.32;;;4.72;;
61960;SDS011;47923;42.506;24.192;2023-11-18T06:45:13;7.72;;;4.20;;
61960;SDS011;47923;42.506;24.192;2023-11-18T06:47:40;9.85;;;4.28;;
61960;SDS011;47923;42.506;24.192;2023-11-18T06:50:08;10.27;;;5.70;;
61960;SDS011;47923;42.506;24.192;2023-11-18T06:52:38;8.55;;;3.95;;
61960;SDS011;47923;42.506;24.192;2023-11-18T06:55:04;6.38;;;3.30;;
61960;SDS011;47923;42.506;24.192;2023-11-18T06:57:30;6.43;;;3.67;;
61960;SDS011;47923;42.506;24.192;2023-11-18T06:59:56;5.63;;;2.50;;
61960;SDS011;47923;42.506;24.192;2023-11-18T07:46:09;5.30;;;1.95;;
61960;SDS011;47923;42.506;24.192;2023-11-18T07:48:38;5.88;;;2.78;;
61960;SDS011;47923;42.506;24.192;2023-11-18T07:51:04;3.85;;;2.33;;
61960;SDS011;47923;42.506;24.192;2023-11-18T07:53:30;8.13;;;2.97;;
61960;SDS011;47923;42.506;24.192;2023-11-18T07:55:55;5.38;;;2.40;;
61960;SDS011;47923;42.506;24.192;2023-11-18T07:58:21;6.72;;;3.08;;
61960;SDS011;47923;42.506;24.192;2023-11-18T08:00:48;6.68;;;2.67;;
61960;SDS011;47923;42.506;24.192;2023-11-18T08:03:15;3.35;;;1.60;;
61960;SDS011;47923;42.506;24.192;2023-11-18T08:05:41;4.30;;;2.25;;
61960;SDS011;47923;42.506;24.192;2023-11-18T08:08:10;4.25;;;2.00;;
61960;SDS011;47923;42.506;24.192;2023-11-18T08:10:37;3.55;;;1.95;;
61960;SDS011;47923;42.506;24.192;2023-11-18T08:13:07;4.47;;;2.00;;
61960;SDS011;47923;42.506;24.192;2023-11-18T08:15:37;8.25;;;3.40;;
61960;SDS011;47923;42.506;24.192;2023-11-18T08:18:04;5.57;;;2.45;;
61960;SDS011;47923;42.506;24.192;2023-11-18T08:20:30;7.40;;;2.65;;
61960;SDS011;47923;42.506;24.192;2023-11-18T08:22:55;5.22;;;2.53;;
61960;SDS011;47923;42.506;24.192;2023-11-18T08:25:21;7.10;;;2.17;;
61960;SDS011;47923;42.506;24.192;2023-11-18T08:27:47;6.63;;;2.50;;
61960;SDS011;47923;42.506;24.192;2023-11-18T08:30:13;7.70;;;2.42;;
61960;SDS011;47923;42.506;24.192;2023-11-18T08:32:40;5.18;;;2.10;;
61960;SDS011;47923;42.506;24.192;2023-11-18T08:37:39;6.07;;;2.58;;
61960;SDS011;47923;42.506;24.192;2023-11-18T08:40:06;2.97;;;1.58;;
61960;SDS011;47923;42.506;24.192;2023-11-18T08:43:02;7.25;;;2.28;;
61960;SDS011;47923;42.506;24.192;2023-11-18T08:45:30;3.80;;;2.08;;
61960;SDS011;47923;42.506;24.192;2023-11-18T08:48:00;5.55;;;3.15;;
61960;SDS011;47923;42.506;24.192;2023-11-18T08:50:27;7.85;;;3.05;;
61960;SDS011;47923;42.506;24.192;2023-11-18T08:52:54;5.50;;;1.90;;
61960;SDS011;47923;42.506;24.192;2023-11-18T08:55:23;5.70;;;1.67;;
61960;SDS011;47923;42.506;24.192;2023-11-18T08:58:04;4.63;;;2.15;;
61960;SDS011;47923;42.506;24.192;2023-11-18T09:00:41;3.28;;;1.80;;
61960;SDS011;47923;42.506;24.192;2023-11-18T09:03:07;3.72;;;1.83;;
61960;SDS011;47923;42.506;24.192;2023-11-18T09:05:33;4.68;;;2.10;;
61960;SDS011;47923;42.506;24.192;2023-11-18T09:08:01;2.95;;;1.30;;
61960;SDS011;47923;42.506;24.192;2023-11-18T09:10:27;4.18;;;2.00;;
61960;SDS011;47923;42.506;24.192;2023-11-18T09:12:53;7.28;;;2.53;;
61960;SDS011;47923;42.506;24.192;2023-11-18T09:15:19;4.60;;;2.17;;
61960;SDS011;47923;42.506;24.192;2023-11-18T09:17:48;4.53;;;2.25;;
61960;SDS011;47923;42.506;24.192;2023-11-18T09:20:14;4.70;;;2.15;;
61960;SDS011;47923;42.506;24.192;2023-11-18T09:22:52;8.48;;;3.80;;
61960;SDS011;47923;42.506;24.192;2023-11-18T09:25:27;3.95;;;1.77;;
61960;SDS011;47923;42.506;24.192;2023-11-18T09:27:53;3.80;;;1.50;;
61960;SDS011;47923;42.506;24.192;2023-11-18T09:30:25;4.57;;;1.95;;
61960;SDS011;47923;42.506;24.192;2023-11-18T09:32:51;3.10;;;1.40;;
61960;SDS011;47923;42.506;24.192;2023-11-18T09:35:16;5.05;;;1.70;;
61960;SDS011;47923;42.506;24.192;2023-11-18T09:37:44;2.58;;;1.25;;
61960;SDS011;47923;42.506;24.192;2023-11-18T09:40:14;3.50;;;1.88;;
61960;SDS011;47923;42.506;24.192;2023-11-18T09:42:45;3.63;;;1.80;;
61960;SDS011;47923;42.506;24.192;2023-11-18T09:45:11;6.60;;;1.77;;
61960;SDS011;47923;42.506;24.192;2023-11-18T09:47:42;4.45;;;2.20;;
61960;SDS011;47923;42.506;24.192;2023-11-18T09:50:12;3.10;;;1.65;;
61960;SDS011;47923;42.506;24.192;2023-11-18T09:52:42;3.75;;;1.80;;
61960;SDS011;47923;42.506;24.192;2023-11-18T09:55:28;3.85;;;1.75;;
61960;SDS011;47923;42.506;24.192;2023-11-18T10:00:38;4.85;;;1.80;;
61960;SDS011;47923;42.506;24.192;2023-11-18T10:03:07;3.40;;;1.52;;
61960;SDS011;47923;42.506;24.192;2023-11-18T10:08:07;4.38;;;1.90;;
61960;SDS011;47923;42.506;24.192;2023-11-18T10:10:32;5.35;;;2.20;;
61960;SDS011;47923;42.506;24.192;2023-11-18T10:13:01;7.80;;;3.17;;
61960;SDS011;47923;42.506;24.192;2023-11-18T10:15:29;4.82;;;2.35;;
61960;SDS011;47923;42.506;24.192;2023-11-18T10:17:56;8.00;;;3.90;;
61960;SDS011;47923;42.506;24.192;2023-11-18T10:23:12;5.47;;;2.15;;
61960;SDS011;47923;42.506;24.192;2023-11-18T10:28:23;10.45;;;5.53;;
61960;SDS011;47923;42.506;24.192;2023-11-18T10:31:04;14.23;;;7.55;;
61960;SDS011;47923;42.506;24.192;2023-11-18T10:33:36;14.00;;;9.60;;
61960;SDS011;47923;42.506;24.192;2023-11-18T10:36:03;16.02;;;12.50;;
61960;SDS011;47923;42.506;24.192;2023-11-18T10:38:38;6.97;;;3.80;;
61960;SDS011;47923;42.506;24.192;2023-11-18T10:41:08;13.55;;;4.68;;
61960;SDS011;47923;42.506;24.192;2023-11-18T10:43:35;5.75;;;2.67;;
61960;SDS011;47923;42.506;24.192;2023-11-18T10:46:10;20.02;;;12.13;;
61960;SDS011;47923;42.506;24.192;2023-11-18T10:48:41;9.70;;;5.13;;
61960;SDS011;47923;42.506;24.192;2023-11-18T10:51:12;9.82;;;2.90;;
61960;SDS011;47923;42.506;24.192;2023-11-18T10:53:46;5.45;;;2.40;;
61960;SDS011;47923;42.506;24.192;2023-11-18T10:56:33;14.43;;;5.03;;
61960;SDS011;47923;42.506;24.192;2023-11-18T10:59:06;7.10;;;3.28;;
61960;SDS011;47923;42.506;24.192;2023-11-18T11:01:36;10.15;;;5.13;;
61960;SDS011;47923;42.506;24.192;2023-11-18T11:04:07;6.20;;;2.83;;
61960;SDS011;47923;42.506;24.192;2023-11-18T11:06:46;8.30;;;3.42;;
61960;SDS011;47923;42.506;24.192;2023-11-18T11:09:19;10.07;;;4.40;;
61960;SDS011;47923;42.506;24.192;2023-11-18T11:11:53;6.43;;;2.83;;
61960;SDS011;47923;42.506;24.192;2023-11-18T11:14:22;5.05;;;1.80;;
61960;SDS011;47923;42.506;24.192;2023-11-18T11:17:00;5.75;;;3.38;;
61960;SDS011;47923;42.506;24.192;2023-11-18T11:22:34;5.18;;;2.40;;
61960;SDS011;47923;42.506;24.192;2023-11-18T11:25:14;7.07;;;2.40;;
61960;SDS011;47923;42.506;24.192;2023-11-18T11:30:36;8.68;;;3.80;;
61960;SDS011;47923;42.506;24.192;2023-11-18T11:33:13;5.22;;;2.20;;
61960;SDS011;47923;42.506;24.192;2023-11-18T11:35:46;6.65;;;2.80;;
61960;SDS011;47923;42.506;24.192;2023-11-18T11:38:17;6.00;;;3.13;;
61960;SDS011;47923;42.506;24.192;2023-11-18T11:40:44;4.57;;;2.17;;
61960;SDS011;47923;42.506;24.192;2023-11-18T11:43:12;8.82;;;4.32;;
61960;SDS011;47923;42.506;24.192;2023-11-18T11:45:46;7.88;;;2.70;;
61960;SDS011;47923;42.506;24.192;2023-11-18T11:48:13;7.13;;;3.30;;
61960;SDS011;47923;42.506;24.192;2023-11-18T11:53:34;8.55;;;3.90;;
61960;SDS011;47923;42.506;24.192;2023-11-18T11:56:04;7.38;;;3.35;;
61960;SDS011;47923;42.506;24.192;2023-11-18T11:58:34;6.72;;;3.13;;
61960;SDS011;47923;42.506;24.192;2023-11-18T12:03:58;7.80;;;2.70;;
61960;SDS011;47923;42.506;24.192;2023-11-18T12:06:32;6.28;;;3.00;;
61960;SDS011;47923;42.506;24.192;2023-11-18T12:09:00;7.10;;;2.40;;
61960;SDS011;47923;42.506;24.192;2023-11-18T12:11:32;7.38;;;3.10;;
61960;SDS011;47923;42.506;24.192;2023-11-18T12:16:58;6.88;;;2.88;;
61960;SDS011;47923;42.506;24.192;2023-11-18T12:19:46;5.90;;;3.00;;
61960;SDS011;47923;42.506;24.192;2023-11-18T12:22:20;6.32;;;2.70;;
61960;SDS011;47923;42.506;24.192;2023-11-18T12:41:00;9.00;;;3.92;;
61960;SDS011;47923;42.506;24.192;2023-11-18T12:43:48;8.68;;;3.90;;
61960;SDS011;47923;42.506;24.192;2023-11-18T12:49:12;8.15;;;3.72;;
61960;SDS011;47923;42.506;24.192;2023-11-18T12:51:44;6.78;;;3.10;;
61960;SDS011;47923;42.506;24.192;2023-11-18T12:54:11;3.53;;;2.10;;
61960;SDS011;47923;42.506;24.192;2023-11-18T12:56:37;6.40;;;2.83;;
61960;SDS011;47923;42.506;24.192;2023-11-18T12:59:09;11.23;;;4.78;;
61960;SDS011;47923;42.506;24.192;2023-11-18T13:01:38;9.02;;;3.97;;
61960;SDS011;47923;42.506;24.192;2023-11-18T13:04:07;5.93;;;3.08;;
61960;SDS011;47923;42.506;24.192;2023-11-18T13:06:34;7.70;;;3.40;;
61960;SDS011;47923;42.506;24.192;2023-11-18T13:09:00;6.13;;;3.05;;
61960;SDS011;47923;42.506;24.192;2023-11-18T13:11:31;6.50;;;3.13;;
61960;SDS011;47923;42.506;24.192;2023-11-18T13:13:58;6.32;;;3.20;;
61960;SDS011;47923;42.506;24.192;2023-11-18T13:16:24;5.78;;;2.60;;
61960;SDS011;47923;42.506;24.192;2023-11-18T13:18:50;9.02;;;4.05;;
61960;SDS011;47923;42.506;24.192;2023-11-18T13:21:17;4.68;;;2.17;;
61960;SDS011;47923;42.506;24.192;2023-11-18T13:23:48;6.43;;;3.00;;
61960;SDS011;47923;42.506;24.192;2023-11-18T13:26:17;4.28;;;2.10;;
61960;SDS011;47923;42.506;24.192;2023-11-18T13:28:45;6.25;;;3.17;;
61960;SDS011;47923;42.506;24.192;2023-11-18T13:31:12;5.40;;;2.65;;
61960;SDS011;47923;42.506;24.192;2023-11-18T13:33:42;4.35;;;2.55;;
61960;SDS011;47923;42.506;24.192;2023-11-18T13:36:09;5.18;;;2.70;;
61960;SDS011;47923;42.506;24.192;2023-11-18T13:38:38;3.67;;;1.98;;
61960;SDS011;47923;42.506;24.192;2023-11-18T13:41:05;5.05;;;2.35;;
61960;SDS011;47923;42.506;24.192;2023-11-18T13:43:43;4.03;;;2.45;;
61960;SDS011;47923;42.506;24.192;2023-11-18T13:46:13;6.32;;;2.80;;
61960;SDS011;47923;42.506;24.192;2023-11-18T13:48:39;6.05;;;3.55;;
61960;SDS011;47923;42.506;24.192;2023-11-18T13:51:12;4.28;;;2.90;;
61960;SDS011;47923;42.506;24.192;2023-11-18T13:53:38;6.22;;;2.95;;
61960;SDS011;47923;42.506;24.192;2023-11-18T13:56:06;4.57;;;2.17;;
61960;SDS011;47923;42.506;24.192;2023-11-18T13:58:34;5.03;;;2.58;;
61960;SDS011;47923;42.506;24.192;2023-11-18T14:01:04;7.03;;;2.85;;
61960;SDS011;47923;42.506;24.192;2023-11-18T14:03:34;5.70;;;2.95;;
61960;SDS011;47923;42.506;24.192;2023-11-18T14:06:02;4.53;;;2.25;;
61960;SDS011;47923;42.506;24.192;2023-11-18T14:08:37;6.65;;;2.92;;
61960;SDS011;47923;42.506;24.192;2023-11-18T14:11:04;6.35;;;2.90;;
61960;SDS011;47923;42.506;24.192;2023-11-18T14:13:31;10.07;;;3.70;;
61960;SDS011;47923;42.506;24.192;2023-11-18T14:16:00;6.07;;;3.33;;
61960;SDS011;47923;42.506;24.192;2023-11-18T14:18:26;7.68;;;3.65;;
61960;SDS011;47923;42.506;24.192;2023-11-18T14:20:52;6.13;;;3.58;;
61960;SDS011;47923;42.506;24.192;2023-11-18T14:23:17;5.70;;;3.40;;
61960;SDS011;47923;42.506;24.192;2023-11-18T14:25:44;5.72;;;2.92;;
61960;SDS011;47923;42.506;24.192;2023-11-18T14:28:12;6.78;;;3.50;;
61960;SDS011;47923;42.506;24.192;2023-11-18T14:30:38;6.28;;;3.20;;
61960;SDS011;47923;42.506;24.192;2023-11-18T14:33:05;6.60;;;3.67;;
61960;SDS011;47923;42.506;24.192;2023-11-18T14:35:32;10.23;;;5.32;;
61960;SDS011;47923;42.506;24.192;2023-11-18T14:37:58;8.38;;;3.55;;
61960;SDS011;47923;42.506;24.192;2023-11-18T14:40:26;7.72;;;3.70;;
61960;SDS011;47923;42.506;24.192;2023-11-18T14:42:53;10.70;;;4.90;;
61960;SDS011;47923;42.506;24.192;2023-11-18T14:45:19;8.38;;;4.85;;
61960;SDS011;47923;42.506;24.192;2023-11-18T14:47:45;9.70;;;4.55;;
61960;SDS011;47923;42.506;24.192;2023-11-18T14:50:12;8.68;;;5.20;;
61960;SDS011;47923;42.506;24.192;2023-11-18T14:52:52;6.30;;;3.60;;
61960;SDS011;47923;42.506;24.192;2023-11-18T14:55:23;7.18;;;3.95;;
61960;SDS011;47923;42.506;24.192;2023-11-18T14:57:50;7.68;;;4.57;;
61960;SDS011;47923;42.506;24.192;2023-11-18T15:00:16;5.85;;;3.30;;
61960;SDS011;47923;42.506;24.192;2023-11-18T15:02:46;8.30;;;5.45;;
61960;SDS011;47923;42.506;24.192;2023-11-18T15:05:13;7.63;;;4.85;;
61960;SDS011;47923;42.506;24.192;2023-11-18T15:07:43;11.32;;;5.68;;
61960;SDS011;47923;42.506;24.192;2023-11-18T15:10:10;9.57;;;5.32;;
61960;SDS011;47923;42.506;24.192;2023-11-18T15:12:36;9.15;;;5.20;;
61960;SDS011;47923;42.506;24.192;2023-11-18T15:15:02;9.25;;;5.18;;
61960;SDS011;47923;42.506;24.192;2023-11-18T15:17:29;8.63;;;4.72;;
61960;SDS011;47923;42.506;24.192;2023-11-18T15:19:55;9.75;;;5.45;;
61960;SDS011;47923;42.506;24.192;2023-11-18T15:22:21;9.70;;;5.60;;
61960;SDS011;47923;42.506;24.192;2023-11-18T15:24:48;8.73;;;5.03;;
61960;SDS011;47923;42.506;24.192;2023-11-18T15:27:14;11.43;;;5.50;;
61960;SDS011;47923;42.506;24.192;2023-11-18T15:29:40;8.15;;;4.80;;
61960;SDS011;47923;42.506;24.192;2023-11-18T15:32:15;12.80;;;6.53;;
61960;SDS011;47923;42.506;24.192;2023-11-18T15:34:42;10.30;;;6.13;;
61960;SDS011;47923;42.506;24.192;2023-11-18T15:37:07;14.02;;;6.55;;
61960;SDS011;47923;42.506;24.192;2023-11-18T15:39:34;15.43;;;7.30;;
61960;SDS011;47923;42.506;24.192;2023-11-18T15:42:00;14.35;;;7.80;;
61960;SDS011;47923;42.506;24.192;2023-11-18T15:44:26;10.75;;;5.75;;
61960;SDS011;47923;42.506;24.192;2023-11-18T15:46:53;10.00;;;5.53;;
61960;SDS011;47923;42.506;24.192;2023-11-18T15:49:19;12.68;;;7.60;;
61960;SDS011;47923;42.506;24.192;2023-11-18T15:51:45;10.98;;;5.60;;
61960;SDS011;47923;42.506;24.192;2023-11-18T15:54:11;10.30;;;6.70;;
61960;SDS011;47923;42.506;24.192;2023-11-18T15:56:40;11.52;;;7.25;;
61960;SDS011;47923;42.506;24.192;2023-11-18T15:59:07;12.30;;;7.55;;
61960;SDS011;47923;42.506;24.192;2023-11-18T16:01:33;11.65;;;6.65;;
61960;SDS011;47923;42.506;24.192;2023-11-18T16:03:59;11.18;;;6.93;;
61960;SDS011;47923;42.506;24.192;2023-11-18T16:06:26;10.68;;;6.93;;
61960;SDS011;47923;42.506;24.192;2023-11-18T16:08:51;11.35;;;6.50;;
61960;SDS011;47923;42.506;24.192;2023-11-18T16:11:17;10.35;;;6.97;;